This is the latest recevied weather packets stored in our database for station/object N3EYQ. If no packets are shown the sender has not sent any weather packets the latest 10 day(s).
| Time | Temp. | Humidity | Pressure | Rain* | Wind** | Luminosity | Snow |
|---|---|---|---|---|---|---|---|
| 1777774199 | 8.33° C | 52% | 1013 hPa | 0 mm | - | - | - |
| 1777773599 | 8.33° C | 53% | 1013 hPa | 0 mm | - | - | - |
| 1777772999 | 8.33° C | 55% | 1013 hPa | 0 mm | - | - | - |
| 1777772399 | 7.22° C | 60% | 1012.7 hPa | 0 mm | - | - | - |
| 1777771799 | 7.22° C | 57% | 1012.7 hPa | 0 mm | - | - | - |
| 1777771199 | 7.78° C | 57% | 1012.7 hPa | 0 mm | - | - | - |
| 1777770598 | 7.78° C | 55% | 1012.7 hPa | 0 mm | - | - | - |
| 1777769998 | 8.89° C | 53% | 1012.7 hPa | 0 mm | - | - | - |
| 1777769398 | 8.89° C | 51% | 1012.3 hPa | 0 mm | - | - | - |
| 1777768798 | 9.44° C | 49% | 1012 hPa | 0 mm | - | - | - |
| 1777768198 | 10° C | 48% | 1012 hPa | 0 mm | - | - | - |
| 1777767598 | 10° C | 47% | 1012 hPa | 0 mm | - | - | - |
| 1777766997 | 10.56° C | 46% | 1012 hPa | 0 mm | - | - | - |
| 1777766397 | 11.11° C | 45% | 1012 hPa | 0 mm | - | - | - |
| 1777765798 | 11.67° C | 44% | 1011.6 hPa | 0 mm | - | - | - |
| 1777765197 | 11.67° C | 44% | 1011.6 hPa | 0 mm | - | - | - |
| 1777764597 | 12.22° C | 44% | 1011.6 hPa | 0 mm | - | - | - |
| 1777763997 | 12.22° C | 43% | 1011.6 hPa | 0 mm | - | - | - |
| 1777763396 | 12.22° C | 44% | 1011.6 hPa | 0 mm | - | - | - |
| 1777762796 | 12.22° C | 44% | 1011.6 hPa | 0 mm | - | - | - |
| 1777762196 | 12.22° C | 44% | 1011.3 hPa | 0 mm | - | - | - |
| 1777761596 | 12.22° C | 43% | 1011.3 hPa | 0 mm | - | - | - |
| 1777760996 | 12.78° C | 41% | 1011.3 hPa | 0 mm | - | - | - |
| 1777760397 | 12.78° C | 42% | 1011 hPa | 0 mm | - | - | - |
| 1777759796 | 12.78° C | 40% | 1011 hPa | 0 mm | - | - | - |
* Rain latest hour (hover to see other rain measurements)
** Current wind speed in m/s (hover to see current wind gust speed)